createdAt,value
2022-11-26T00:02:07.176Z,9.92
2022-11-26T00:22:07.131Z,9.92
2022-11-26T00:42:07.133Z,9.92
2022-11-26T01:02:06.872Z,9.92
2022-11-26T01:22:07.091Z,9.92
2022-11-26T01:42:06.823Z,9.92
2022-11-26T02:42:07.048Z,9.9
2022-11-26T03:02:07.046Z,9.89
2022-11-26T03:22:07.057Z,9.89
2022-11-26T03:42:06.760Z,9.88
2022-11-26T04:02:07.033Z,9.87
2022-11-26T04:22:06.400Z,9.87
2022-11-26T04:42:07.025Z,9.86
2022-11-26T05:02:07.009Z,9.85
2022-11-26T05:22:07.000Z,9.85
2022-11-26T05:42:09.274Z,9.84
2022-11-26T06:02:07.068Z,9.84
2022-11-26T06:22:06.976Z,9.84
2022-11-26T06:42:06.962Z,9.83
2022-11-26T07:02:07.005Z,9.81
2022-11-26T07:22:06.675Z,9.8
2022-11-26T07:42:06.944Z,9.78
2022-11-26T08:02:07.016Z,9.77
2022-11-26T08:22:06.927Z,9.76
2022-11-26T08:42:06.905Z,9.75
2022-11-26T09:02:07.978Z,9.74
2022-11-26T09:22:06.900Z,9.74
2022-11-26T09:42:06.216Z,9.73
2022-11-26T10:02:06.627Z,9.73
2022-11-26T10:22:06.789Z,9.71
2022-11-26T10:42:06.504Z,9.7
2022-11-26T11:02:06.847Z,9.68
2022-11-26T12:02:06.755Z,9.65
2022-11-26T12:42:06.623Z,9.64
2022-11-26T13:02:06.606Z,9.64
2022-11-26T13:22:06.598Z,9.64
2022-11-26T13:42:06.541Z,9.64
2022-11-26T14:02:06.519Z,9.64
2022-11-26T14:22:06.495Z,9.64
2022-11-26T14:42:06.773Z,9.64
2022-11-26T15:02:06.488Z,9.64
2022-11-26T15:22:06.432Z,9.64
2022-11-26T15:42:06.407Z,9.64
2022-11-26T16:02:06.419Z,9.65
2022-11-26T16:22:06.358Z,9.65
2022-11-26T16:42:06.347Z,9.66
2022-11-26T17:02:06.151Z,9.66
2022-11-26T17:22:06.312Z,9.67
2022-11-26T17:42:06.281Z,9.68
2022-11-26T18:02:06.281Z,9.69
2022-11-26T18:22:06.234Z,9.7
2022-11-26T18:42:29.894Z,9.71
2022-11-26T19:02:06.334Z,9.72
2022-11-26T19:22:06.227Z,9.72
2022-11-26T19:42:06.277Z,9.73
2022-11-26T20:02:06.250Z,9.73
2022-11-26T20:22:05.918Z,9.73
2022-11-26T20:42:06.185Z,9.74
2022-11-26T21:02:06.194Z,9.74
2022-11-26T21:22:06.156Z,9.74
2022-11-26T21:42:06.140Z,9.74
2022-11-26T22:02:06.207Z,9.74
2022-11-26T22:22:06.144Z,9.74
2022-11-26T22:42:06.104Z,9.74
2022-11-26T23:02:06.144Z,9.74
2022-11-26T23:22:06.051Z,9.73
2022-11-26T23:42:06.038Z,9.73
